This is the latest recevied weather packets stored in our database for station/object JH0FOG-13. If no packets are shown the sender has not sent any weather packets the latest 10 day(s).
| Time | Temp. | Humidity | Pressure | Rain* | Wind** | Luminosity | Snow |
|---|---|---|---|---|---|---|---|
| 1777944001 | 17.78° C | 45% | 1020.9 hPa | 0 mm | - | - | - |
| 1777942801 | 17.78° C | 51% | 1020.8 hPa | 0 mm | - | - | - |
| 1777941601 | 17.22° C | 56% | 1020.6 hPa | 0 mm | - | - | - |
| 1777940401 | 16.67° C | 58% | 1020.6 hPa | 0 mm | - | - | - |
| 1777939201 | 16.67° C | 57% | 1020.6 hPa | 0 mm | - | - | - |
| 1777938001 | 16.11° C | 60% | 1020.4 hPa | 0 mm | - | - | - |
| 1777936801 | 15.56° C | 63% | 1020.5 hPa | 0 mm | - | - | - |
| 1777935601 | 15° C | 67% | 1020.4 hPa | 0 mm | - | - | - |
| 1777934401 | 13.89° C | 68% | 1020.1 hPa | 0 mm | - | - | - |
| 1777933201 | 13.33° C | 72% | 1019.9 hPa | 0 mm | - | - | - |
| 1777932001 | 12.78° C | 75% | 1019.7 hPa | 0 mm | - | - | - |
| 1777930801 | 12.22° C | 76% | 1019.6 hPa | 0 mm | - | - | - |
| 1777929601 | 11.11° C | 81% | 1019.4 hPa | 0 mm | - | - | - |
| 1777928401 | 10° C | 87% | 1019.2 hPa | 0 mm | - | - | - |
| 1777927201 | 8.33° C | 92% | 1019.1 hPa | 0 mm | - | - | - |
| 1777926001 | 6.67° C | 93% | 1018.9 hPa | 0 mm | - | - | - |
| 1777924801 | 6.67° C | 92% | 1018.8 hPa | 0 mm | - | - | - |
| 1777923601 | 6.67° C | 92% | 1018.3 hPa | 0 mm | - | - | - |
| 1777922401 | 7.22° C | 92% | 1017.7 hPa | 0 mm | - | - | - |
| 1777921201 | 7.78° C | 91% | 1017.6 hPa | 0 mm | - | - | - |
| 1777920001 | 7.78° C | 91% | 1017.1 hPa | 0 mm | - | - | - |
| 1777918801 | 8.33° C | 90% | 1017 hPa | 0 mm | - | - | - |
| 1777917601 | 8.89° C | 89% | 1016.7 hPa | 0 mm | - | - | - |
| 1777916401 | 9.44° C | 88% | 1016.7 hPa | 0 mm | - | - | - |
| 1777915201 | 9.44° C | 88% | 1016.5 hPa | 0 mm | - | - | - |
* Rain latest hour (hover to see other rain measurements)
** Current wind speed in m/s (hover to see current wind gust speed)